Time;durP1;ratioP1;P1;durP2;ratioP2;P2;SDS_P1;SDS_P2;PMS_P1;PMS_P2;Temp;Humidity;BMP_temperature;BMP_pressure;BME280_temperature;BME280_humidity;BME280_pressure;Samples;Min_cycle;Max_cycle;Signal;HPM_P1;HPM_P2
2023/01/26 05:00:57;;;;;;;20.20;13.15;;;;;;;6.03;81.11;101094.97;5619317;31;76896;-59
2023/01/26 05:04:01;;;;;;;21.37;12.98;;;;;;;6.03;81.11;101094.97;5603637;31;34160;-59
2023/01/26 05:07:04;;;;;;;22.13;12.37;;;;;;;5.54;84.09;101096.97;5603457;31;33582;-59
2023/01/26 05:10:07;;;;;;;20.40;12.00;;;;;;;5.64;82.76;101100.69;5603693;31;33342;-59
2023/01/26 05:13:10;;;;;;;21.58;13.68;;;;;;;5.47;71.71;101105.06;5603407;31;33329;-60
2023/01/26 05:16:14;;;;;;;17.65;11.48;;;;;;;5.63;93.19;101103.59;5603656;31;33460;-59
2023/01/26 05:19:17;;;;;;;21.08;12.02;;;;;;;5.79;88.40;101100.22;5603444;31;33546;-59
2023/01/26 05:22:20;;;;;;;18.12;12.27;;;;;;;5.65;68.74;101096.16;5603470;31;34416;-59
2023/01/26 05:25:24;;;;;;;17.77;11.38;;;;;;;5.75;81.97;101099.06;5603595;31;33272;-59
2023/01/26 05:28:27;;;;;;;19.33;12.50;;;;;;;6.07;75.40;101099.56;5603533;31;33570;-59
2023/01/26 05:31:29;;;;;;;16.65;11.25;;;;;;;6.17;76.01;101087.53;5603558;31;33459;-59
2023/01/26 05:34:32;;;;;;;17.67;11.68;;;;;;;6.21;72.51;101096.66;5603382;31;33862;-59
2023/01/26 05:37:35;;;;;;;23.08;13.15;;;;;;;5.99;79.46;101096.44;5603317;31;33842;-59
2023/01/26 05:40:37;;;;;;;19.20;12.15;;;;;;;5.97;75.82;101101.22;5603138;31;34319;-59
2023/01/26 05:43:39;;;;;;;21.92;13.43;;;;;;;6.06;80.98;101100.63;5603277;31;34366;-59
2023/01/26 05:46:42;;;;;;;21.05;13.05;;;;;;;6.28;82.38;101102.69;5603430;31;34425;-59
2023/01/26 05:49:45;;;;;;;19.85;11.98;;;;;;;6.18;83.40;101113.91;5603269;31;32147;-60
2023/01/26 05:52:48;;;;;;;20.20;13.27;;;;;;;6.04;69.47;101105.38;5603040;31;33204;-59
2023/01/26 05:55:51;;;;;;;18.70;12.85;;;;;;;6.17;93.54;101106.97;5603107;31;34256;-59
2023/01/26 05:58:55;;;;;;;20.52;13.75;;;;;;;6.01;82.53;101105.81;5602688;31;34441;-59
2023/01/26 06:01:58;;;;;;;20.02;12.50;;;;;;;6.06;89.96;101116.59;5602453;31;33109;-59
2023/01/26 06:05:01;;;;;;;20.60;13.10;;;;;;;5.84;70.54;101111.00;5603157;31;33384;-60
2023/01/26 06:08:03;;;;;;;19.83;12.48;;;;;;;5.84;82.29;101118.97;5602811;31;33245;-59
2023/01/26 06:11:06;;;;;;;17.58;12.02;;;;;;;5.96;74.69;101110.22;5594792;31;33699;-59
2023/01/26 06:14:09;;;;;;;17.77;12.32;;;;;;;5.99;75.10;101104.44;5589454;31;33082;-59
2023/01/26 06:17:13;;;;;;;17.83;12.60;;;;;;;5.74;77.79;101102.78;5589640;31;34394;-59
2023/01/26 06:20:16;;;;;;;20.62;12.93;;;;;;;5.83;77.69;101108.59;5588791;31;33665;-59
2023/01/26 06:23:18;;;;;;;23.65;12.23;;;;;;;5.87;77.24;101101.75;5589059;31;33836;-59
2023/01/26 06:26:23;;;;;;;21.12;12.30;;;;;;;5.96;81.78;101108.37;5588986;31;33319;-59
2023/01/26 06:29:26;;;;;;;18.23;12.02;;;;;;;5.72;80.74;101107.50;5588836;31;33434;-59
2023/01/26 06:32:29;;;;;;;19.83;11.93;;;;;;;5.78;79.41;101105.78;5589269;31;33335;-59
2023/01/26 06:35:34;;;;;;;19.35;11.93;;;;;;;5.68;71.53;101109.00;5589254;31;34339;-59
2023/01/26 06:38:38;;;;;;;19.27;12.18;;;;;;;5.66;67.12;101108.41;5589226;31;33186;-59
2023/01/26 06:41:42;;;;;;;18.12;12.60;;;;;;;5.59;67.11;101103.22;5589254;31;33575;-60
2023/01/26 06:44:45;;;;;;;18.52;12.07;;;;;;;5.45;66.74;101101.00;5588840;31;33853;-59
2023/01/26 06:47:49;;;;;;;16.75;11.75;;;;;;;5.32;68.29;101099.34;5589123;31;33706;-59
2023/01/26 06:50:52;;;;;;;18.85;11.35;;;;;;;5.19;69.09;101095.84;5589055;31;33309;-59
2023/01/26 06:53:56;;;;;;;19.20;12.20;;;;;;;5.17;67.44;101097.94;5588510;31;33716;-59
2023/01/26 06:56:59;;;;;;;20.65;11.43;;;;;;;5.24;69.04;101092.50;5588006;31;34450;-59
2023/01/26 07:00:02;;;;;;;18.20;11.55;;;;;;;5.38;73.87;101093.94;5569746;31;33672;-59
2023/01/26 07:03:05;;;;;;;16.58;11.05;;;;;;;5.42;88.13;101089.78;5567489;32;33804;-58
2023/01/26 07:06:11;;;;;;;14.85;10.13;;;;;;;5.53;77.32;101098.00;5565557;32;33622;-59
2023/01/26 07:09:14;;;;;;;16.08;10.35;;;;;;;5.37;67.11;101092.31;5568877;32;33761;-59
2023/01/26 07:12:16;;;;;;;16.20;10.10;;;;;;;5.84;85.18;101091.56;5569400;32;33656;-59
2023/01/26 07:15:18;;;;;;;18.12;9.52;;;;;;;6.02;72.11;101093.31;5569241;32;33566;-59
2023/01/26 07:18:21;;;;;;;15.52;9.73;;;;;;;5.93;64.90;101082.22;5569256;32;34277;-59
2023/01/26 07:21:23;;;;;;;18.05;10.75;;;;;;;5.67;72.15;101077.34;5568484;32;33639;-59
2023/01/26 07:24:26;;;;;;;14.45;10.35;;;;;;;5.69;75.81;101083.22;5568211;32;33658;-59
2023/01/26 07:27:29;;;;;;;17.55;11.12;;;;;;;5.57;69.12;101081.37;5567887;32;34295;-59
2023/01/26 07:30:31;;;;;;;16.58;10.40;;;;;;;5.42;69.56;101078.31;5565467;32;33520;-60
2023/01/26 07:33:34;;;;;;;15.52;10.63;;;;;;;5.42;76.52;101073.81;5559421;32;33576;-59
2023/01/26 07:36:36;;;;;;;16.40;11.10;;;;;;;5.54;83.38;101081.81;5550572;32;33629;-59
2023/01/26 07:39:39;;;;;;;18.17;11.50;;;;;;;5.67;81.12;101069.34;5559300;31;31930;-59
2023/01/26 07:42:41;;;;;;;19.25;10.65;;;;;;;5.62;68.95;101064.72;5549179;32;33670;-59
2023/01/26 07:45:53;;;;;;;18.27;11.95;;;;;;;5.47;68.70;101064.37;5557336;32;31936;-59
2023/01/26 07:48:56;;;;;;;20.88;11.68;;;;;;;5.84;88.98;101075.59;5548958;32;33162;-59
2023/01/26 07:51:59;;;;;;;22.77;12.02;;;;;;;5.96;71.67;101073.78;5561440;32;33420;-59
2023/01/26 07:55:03;;;;;;;19.40;12.02;;;;;;;5.83;65.97;101069.47;5568719;32;33792;-59
2023/01/26 07:58:05;;;;;;;17.52;12.15;;;;;;;5.58;71.53;101072.34;5568204;32;33767;-59
2023/01/26 08:01:12;;;;;;;17.60;12.18;;;;;;;5.46;72.64;101076.81;5562421;32;33575;-59
2023/01/26 08:04:15;;;;;;;17.42;11.77;;;;;;;5.94;85.77;101070.53;5548522;32;33417;-59
2023/01/26 08:07:17;;;;;;;17.67;11.32;;;;;;;5.72;76.96;101069.47;5548407;32;33539;-60
2023/01/26 08:10:20;;;;;;;20.27;12.57;;;;;;;5.76;76.82;101067.94;5548797;32;33718;-59
2023/01/26 08:13:22;;;;;;;20.75;12.25;;;;;;;5.73;69.18;101071.06;5549107;32;33312;-59
2023/01/26 08:16:36;;;;;;;16.50;12.05;;;;;;;5.77;70.25;101077.56;5548846;32;34347;-59
2023/01/26 08:19:38;;;;;;;16.98;11.88;;;;;;;6.11;85.66;101071.44;5548572;32;34293;-59
2023/01/26 08:22:41;;;;;;;22.05;12.10;;;;;;;6.03;77.10;101063.81;5548066;32;33779;-59
2023/01/26 08:25:43;;;;;;;16.58;11.65;;;;;;;6.20;70.80;101068.44;5548994;32;33386;-59
2023/01/26 08:28:46;;;;;;;16.98;11.93;;;;;;;6.37;83.92;101063.19;5561806;32;33676;-59
2023/01/26 08:31:48;;;;;;;16.10;11.07;;;;;;;6.15;85.80;101063.00;5567735;32;33581;-59
2023/01/26 08:34:51;;;;;;;17.08;11.68;;;;;;;5.96;65.61;101062.31;5567862;32;34402;-59
2023/01/26 08:37:53;;;;;;;15.98;11.10;;;;;;;6.08;83.16;101071.09;5568752;32;33534;-59
2023/01/26 08:40:56;;;;;;;16.40;11.30;;;;;;;5.97;80.80;101071.94;5568349;32;33196;-59
2023/01/26 08:43:58;;;;;;;16.95;11.48;;;;;;;6.28;76.93;101063.53;5568223;32;33692;-59
2023/01/26 08:47:00;;;;;;;17.52;11.32;;;;;;;6.43;87.10;101064.91;5568403;32;33694;-59
2023/01/26 08:50:03;;;;;;;17.23;11.93;;;;;;;6.30;74.16;101063.31;5568535;31;33505;-59
2023/01/26 08:53:06;;;;;;;18.37;11.57;;;;;;;6.18;90.64;101065.19;5564576;32;34261;-59
2023/01/26 08:56:11;;;;;;;15.35;10.90;;;;;;;6.23;73.38;101067.97;5555738;32;33563;-59
2023/01/26 08:59:13;;;;;;;16.73;11.52;;;;;;;5.86;66.21;101076.16;5553105;32;33756;-58
2023/01/26 09:02:15;;;;;;;16.05;11.52;;;;;;;5.99;69.68;101062.66;5551405;32;33861;-59
2023/01/26 09:05:18;;;;;;;16.65;11.82;;;;;;;6.12;85.51;101064.25;5556395;32;34402;-59
2023/01/26 09:08:20;;;;;;;19.23;13.52;;;;;;;6.22;73.87;101066.34;5548273;32;32830;-59
2023/01/26 09:11:22;;;;;;;19.30;12.37;;;;;;;6.33;89.50;101062.84;5547747;32;34286;-59
2023/01/26 09:14:26;;;;;;;18.12;11.98;;;;;;;6.23;72.68;101067.97;5551740;32;33613;-59
2023/01/26 09:17:29;;;;;;;20.15;12.50;;;;;;;5.98;65.15;101071.69;5548930;32;33740;-59
2023/01/26 09:20:31;;;;;;;17.75;12.77;;;;;;;5.86;79.13;101060.19;5566334;32;33924;-60
2023/01/26 09:23:34;;;;;;;17.92;12.60;;;;;;;5.85;66.43;101064.72;5567458;32;33704;-59
2023/01/26 09:26:36;;;;;;;18.80;12.55;;;;;;;6.03;77.47;101058.50;5559516;32;33645;-58
2023/01/26 09:29:39;;;;;;;18.17;12.37;;;;;;;6.34;77.94;101061.81;5566150;32;33705;-59
2023/01/26 09:32:41;;;;;;;17.55;12.18;;;;;;;6.15;68.66;101058.47;5551142;32;34044;-59
2023/01/26 09:35:43;;;;;;;18.37;13.18;;;;;;;5.86;68.62;101068.19;5559131;32;33580;-58
2023/01/26 09:38:45;;;;;;;19.02;12.73;;;;;;;5.84;77.59;101057.78;5557130;32;34343;-59
2023/01/26 09:42:15;;;;;;;21.62;13.45;;;;;;;6.13;69.97;101060.56;5550358;32;34311;-59
2023/01/26 09:45:25;;;;;;;21.77;13.52;;;;;;;6.26;83.69;101049.69;5562629;32;33587;-59
2023/01/26 09:48:42;;;;;;;21.60;12.80;;;;;;;6.24;81.24;101053.59;5554153;32;34317;-59
2023/01/26 09:51:52;;;;;;;23.98;13.70;;;;;;;6.30;89.31;101047.34;5553888;32;35034;-58
2023/01/26 09:54:58;;;;;;;18.87;13.15;;;;;;;6.22;77.00;101035.19;5550133;32;33581;-59
2023/01/26 09:58:06;;;;;;;19.05;13.13;;;;;;;6.36;78.98;101033.09;5549895;32;33966;-58
2023/01/26 10:01:21;;;;;;;21.08;13.50;;;;;;;6.42;76.85;101026.81;5550123;32;33975;-59
2023/01/26 10:04:36;;;;;;;19.27;13.82;;;;;;;6.81;90.89;101021.69;5558464;32;33674;-59
2023/01/26 10:07:44;;;;;;;21.98;14.48;;;;;;;6.46;70.83;101019.97;5559581;32;34369;-59
2023/01/26 10:10:51;;;;;;;25.37;15.77;;;;;;;6.22;74.04;101013.88;5564557;32;34021;-59
2023/01/26 10:14:10;;;;;;;23.15;14.80;;;;;;;6.06;74.67;101010.13;5554060;32;33359;-58
2023/01/26 10:17:32;;;;;;;20.50;13.82;;;;;;;6.33;69.81;101007.75;5549562;32;33583;-58
2023/01/26 10:20:42;;;;;;;20.95;14.45;;;;;;;6.32;64.16;101002.63;5559419;32;34150;-59
2023/01/26 10:23:47;;;;;;;20.23;14.77;;;;;;;6.24;62.01;100990.50;5549899;32;33173;-59
2023/01/26 10:26:54;;;;;;;21.87;14.00;;;;;;;6.33;87.02;100993.63;5549699;32;34332;-58
2023/01/26 10:29:57;;;;;;;21.23;14.68;;;;;;;6.43;64.87;100995.69;5549541;32;34413;-59
2023/01/26 10:32:59;;;;;;;23.70;14.65;;;;;;;6.58;86.53;100987.94;5550606;32;33308;-58
2023/01/26 10:36:05;;;;;;;22.37;15.60;;;;;;;6.40;71.15;100977.50;5549207;32;33792;-59
2023/01/26 10:39:09;;;;;;;23.30;14.40;;;;;;;6.35;89.25;100976.34;5549151;32;32193;-59
2023/01/26 10:42:17;;;;;;;30.10;15.30;;;;;;;6.26;82.65;100974.31;5548730;32;33729;-59
2023/01/26 10:45:31;;;;;;;26.00;14.70;;;;;;;6.30;85.60;100972.78;5549542;32;34377;-59
2023/01/26 10:48:34;;;;;;;23.17;14.25;;;;;;;6.35;74.69;100976.34;5548660;32;33674;-59
2023/01/26 10:51:39;;;;;;;21.37;14.57;;;;;;;6.04;66.51;100971.47;5548611;32;34552;-59
2023/01/26 10:54:43;;;;;;;23.58;15.20;;;;;;;6.55;100.00;100970.59;5549005;32;33671;-59
2023/01/26 10:57:45;;;;;;;22.27;14.77;;;;;;;6.48;74.83;100963.78;5548581;32;34027;-58
2023/01/26 11:00:54;;;;;;;22.52;14.00;;;;;;;6.18;65.34;100964.03;5548392;32;34345;-59
2023/01/26 11:04:12;;;;;;;23.10;15.13;;;;;;;6.06;79.81;100959.56;5562901;32;34476;-59
2023/01/26 11:07:27;;;;;;;21.83;14.23;;;;;;;6.23;73.76;100958.81;5556654;32;33782;-59
2023/01/26 11:10:38;;;;;;;22.33;14.50;;;;;;;6.29;68.23;100944.53;5561756;32;33779;-59
2023/01/26 11:13:40;;;;;;;23.83;14.68;;;;;;;6.02;76.92;100944.28;5549542;32;33592;-59
2023/01/26 11:17:13;;;;;;;21.00;15.30;;;;;;;6.11;81.83;100949.00;5549180;32;34242;-59
2023/01/26 11:21:04;;;;;;;24.67;14.57;;;;;;;6.05;71.04;100944.59;5550078;32;34441;-58
2023/01/26 11:24:20;;;;;;;24.37;14.95;;;;;;;6.18;80.36;100937.41;5534156;32;33799;-58
2023/01/26 11:27:34;;;;;;;25.23;15.80;;;;;;;5.95;63.71;100925.78;5568691;32;33702;-59
2023/01/26 11:31:03;;;;;;;24.75;15.63;;;;;;;6.36;79.10;100929.25;5566765;32;34416;-60
2023/01/26 11:34:41;;;;;;;25.23;15.38;;;;;;;6.16;66.95;100926.16;5564455;32;33454;-60
2023/01/26 11:38:25;;;;;;;25.27;16.27;;;;;;;6.04;79.26;100923.56;5564727;32;33799;-60
2023/01/26 11:41:46;;;;;;;27.20;16.40;;;;;;;6.21;69.35;100923.62;5531937;32;32203;-60
2023/01/26 11:45:29;;;;;;;26.00;16.65;;;;;;;5.92;71.00;100920.91;5558436;32;34271;-59
2023/01/26 11:49:06;;;;;;;23.98;16.42;;;;;;;5.96;70.87;100905.28;5522706;32;33067;-59
2023/01/26 11:52:08;;;;;;;;;;;;;;;6.24;84.60;100902.66;5552678;32;34397;-60
2023/01/26 11:55:24;;;;;;;26.85;17.10;;;;;;;6.38;98.02;100903.16;5554552;32;33927;-59
2023/01/26 11:58:49;;;;;;;26.12;17.33;;;;;;;6.23;68.48;100895.72;5557291;32;33757;-59
2023/01/26 12:02:02;;;;;;;26.95;16.58;;;;;;;6.14;75.21;100885.69;5549113;32;33752;-60
2023/01/26 12:05:17;;;;;;;25.90;17.02;;;;;;;6.19;92.59;100877.78;5548931;32;34492;-60
2023/01/26 12:08:26;;;;;;;30.50;17.12;;;;;;;6.42;99.66;100875.00;5555634;32;33633;-59
2023/01/26 12:11:37;;;;;;;23.95;16.08;;;;;;;6.49;70.79;100865.03;5568125;32;34418;-60
2023/01/26 12:14:54;;;;;;;26.83;17.67;;;;;;;6.30;75.49;100861.75;5568269;32;33956;-59
2023/01/26 12:18:20;;;;;;;25.92;16.90;;;;;;;6.08;68.27;100864.28;5566467;32;34515;-60
2023/01/26 12:21:22;;;;;;;26.75;16.75;;;;;;;6.01;66.23;100860.16;5558736;32;34092;-60
2023/01/26 12:24:35;;;;;;;28.80;18.20;;;;;;;6.04;89.40;100857.03;5557639;32;34349;-59
2023/01/26 12:28:11;;;;;;;28.90;16.92;;;;;;;6.07;66.91;100854.69;5549782;32;33884;-60
2023/01/26 12:31:36;;;;;;;28.95;18.02;;;;;;;6.26;88.67;100860.63;5560673;32;33919;-59
2023/01/26 12:34:38;;;;;;;26.50;16.30;;;;;;;6.00;71.84;100851.38;5564949;32;34380;-59
2023/01/26 12:38:04;;;;;;;25.75;16.02;;;;;;;6.11;78.91;100847.03;5556637;32;33963;-59
2023/01/26 12:41:44;;;;;;;29.50;17.85;;;;;;;6.25;84.30;100850.22;5561697;32;32629;-59
2023/01/26 12:45:00;;;;;;;25.05;16.10;;;;;;;6.13;68.56;100847.63;5555620;32;33390;-59
2023/01/26 12:48:31;;;;;;;26.40;16.37;;;;;;;6.17;79.41;100837.28;5549133;32;34356;-60
2023/01/26 12:51:42;;;;;;;29.70;17.83;;;;;;;5.98;93.49;100834.03;5547954;32;33874;-59
2023/01/26 12:54:57;;;;;;;26.87;16.25;;;;;;;6.12;66.51;100833.50;5550067;32;33531;-60
2023/01/26 12:58:04;;;;;;;28.52;17.27;;;;;;;5.87;72.22;100838.31;5548341;32;33627;-59
2023/01/26 13:01:11;;;;;;;27.55;16.55;;;;;;;5.84;71.71;100828.16;5562513;32;33780;-60
2023/01/26 13:04:15;;;;;;;28.52;16.58;;;;;;;5.93;86.81;100833.91;5563912;32;33672;-60
2023/01/26 13:07:38;;;;;;;26.08;16.25;;;;;;;6.32;96.42;100826.87;5557488;32;33749;-59
2023/01/26 13:10:50;;;;;;;31.42;16.30;;;;;;;6.24;75.20;100829.97;5551479;32;33681;-59
2023/01/26 13:13:55;;;;;;;30.05;15.77;;;;;;;6.07;76.22;100827.28;5555038;32;33684;-59
2023/01/26 13:17:18;;;;;;;28.70;17.70;;;;;;;6.42;90.10;100826.25;5550109;32;33894;-60
2023/01/26 13:20:38;;;;;;;24.90;15.95;;;;;;;6.26;88.52;100819.91;5532082;32;33850;-59
2023/01/26 13:23:44;;;;;;;32.38;16.27;;;;;;;6.04;68.30;100814.44;5565820;32;33851;-59
2023/01/26 13:26:47;;;;;;;25.12;15.10;;;;;;;6.08;70.09;100810.25;5569682;32;34309;-60
2023/01/26 13:29:54;;;;;;;25.48;15.88;;;;;;;5.95;67.90;100818.53;5556734;32;33635;-59
2023/01/26 13:33:15;;;;;;;;;;;;;;;5.98;77.58;100820.72;5560772;32;33696;-60
2023/01/26 13:36:20;;;;;;;27.25;15.82;;;;;;;6.02;74.02;100813.88;5570625;32;33901;-60
2023/01/26 13:39:33;;;;;;;26.37;16.55;;;;;;;6.02;72.43;100819.19;5554012;31;33654;-60
2023/01/26 13:42:55;;;;;;;26.83;16.48;;;;;;;5.72;65.78;100819.41;5563935;32;34429;-60
2023/01/26 13:46:16;;;;;;;23.30;15.57;;;;;;;6.00;74.17;100816.78;5564892;32;34496;-60
2023/01/26 13:49:42;;;;;;;22.35;14.55;;;;;;;6.75;100.00;100817.44;5556712;32;33690;-60
2023/01/26 13:52:44;;;;;;;25.17;16.12;;;;;;;6.46;71.46;100819.41;5551106;32;33661;-60
2023/01/26 13:55:53;;;;;;;27.98;16.87;;;;;;;6.89;100.00;100821.41;5562366;32;33772;-60
2023/01/26 13:59:05;;;;;;;28.02;16.75;;;;;;;6.53;82.90;100822.72;5565539;32;33727;-59
2023/01/26 14:02:22;;;;;;;26.65;16.60;;;;;;;6.74;90.47;100813.19;5552774;32;33672;-59
2023/01/26 14:05:25;;;;;;;26.98;16.92;;;;;;;6.33;89.25;100807.22;5558005;32;34378;-60
2023/01/26 14:08:30;;;;;;;28.90;17.52;;;;;;;6.19;72.38;100803.25;5557052;32;33670;-59
2023/01/26 14:11:33;;;;;;;27.08;17.70;;;;;;;6.00;73.52;100815.97;5565147;32;34347;-60
2023/01/26 14:14:36;;;;;;;28.00;18.30;;;;;;;5.88;81.22;100818.66;5562149;32;33472;-59
2023/01/26 14:17:51;;;;;;;27.55;17.92;;;;;;;5.92;74.81;100811.00;5560213;32;33948;-59
2023/01/26 14:21:05;;;;;;;31.67;18.37;;;;;;;5.70;76.94;100816.19;5561950;32;34341;-60
2023/01/26 14:24:08;;;;;;;30.60;17.62;;;;;;;6.01;89.86;100814.91;5560268;32;33725;-60
2023/01/26 14:27:38;;;;;;;32.45;19.05;;;;;;;5.75;80.88;100813.59;5557795;32;33905;-59
2023/01/26 14:30:41;;;;;;;29.77;18.83;;;;;;;5.79;87.42;100817.41;5553194;32;32177;-59
2023/01/26 14:33:44;;;;;;;30.33;19.48;;;;;;;5.71;78.65;100817.78;5560704;32;33412;-59
2023/01/26 14:36:47;;;;;;;33.60;19.70;;;;;;;5.74;77.29;100825.31;5568981;32;34357;-59
2023/01/26 14:40:16;;;;;;;28.48;18.52;;;;;;;5.67;77.86;100817.47;5553869;32;33708;-59
2023/01/26 14:43:20;;;;;;;28.17;18.15;;;;;;;6.02;86.68;100812.00;5563299;32;33640;-60
2023/01/26 14:46:31;;;;;;;34.70;19.95;;;;;;;5.77;74.54;100812.34;5558773;32;34424;-59
2023/01/26 14:49:45;;;;;;;37.95;18.87;;;;;;;5.89;79.68;100804.28;5569188;32;33545;-59
2023/01/26 14:52:48;;;;;;;29.08;18.10;;;;;;;5.88;83.20;100808.81;5568680;32;34298;-60
2023/01/26 14:55:52;;;;;;;29.12;17.85;;;;;;;5.74;73.50;100802.16;5557447;32;34498;-59
2023/01/26 14:58:56;;;;;;;27.45;17.77;;;;;;;5.85;91.68;100800.50;5563809;32;33787;-59
2023/01/26 15:02:22;;;;;;;29.37;17.02;;;;;;;6.23;86.98;100807.88;5569742;32;33667;-60
2023/01/26 15:05:34;;;;;;;26.87;17.33;;;;;;;6.03;74.23;100795.00;5569486;32;33762;-59
2023/01/26 15:08:38;;;;;;;31.12;17.23;;;;;;;6.15;76.72;100800.25;5549974;32;33741;-60
2023/01/26 15:15:11;;;;;;;24.48;16.55;;;;;;;6.09;80.56;100795.88;5552909;32;33714;-60
2023/01/26 15:18:13;;;;;;;30.55;17.55;;;;;;;5.95;84.39;100815.88;5566945;32;34441;-59
2023/01/26 15:21:21;;;;;;;27.98;16.15;;;;;;;5.78;76.67;100800.63;5566700;32;33751;-59
2023/01/26 15:24:23;;;;;;;25.48;16.77;;;;;;;5.61;75.13;100815.75;5569132;32;33748;-60
2023/01/26 15:27:35;;;;;;;26.25;16.65;;;;;;;5.71;82.45;100815.12;5568569;32;33648;-59
2023/01/26 15:30:37;;;;;;;29.42;16.52;;;;;;;5.88;82.91;100810.66;5567502;32;34119;-59
2023/01/26 15:33:44;;;;;;;25.27;15.88;;;;;;;5.76;71.22;100805.41;5565098;32;34632;-60
2023/01/26 15:36:46;;;;;;;;;;;;;;;5.74;74.38;100810.16;5569709;32;33716;-60
2023/01/26 15:39:49;;;;;;;27.80;16.52;;;;;;;5.73;85.70;100813.03;5568070;32;34628;-59
2023/01/26 15:43:16;;;;;;;25.67;15.73;;;;;;;5.69;84.63;100809.22;5568080;32;34331;-60
2023/01/26 15:46:19;;;;;;;25.45;16.33;;;;;;;5.66;73.46;100807.84;5569279;32;34446;-60
2023/01/26 15:49:22;;;;;;;21.48;15.13;;;;;;;5.60;80.87;100808.81;5562301;32;33785;-59
2023/01/26 15:52:29;;;;;;;22.40;14.80;;;;;;;5.52;75.37;100809.97;5549983;32;34309;-59
2023/01/26 15:55:32;;;;;;;28.52;15.85;;;;;;;5.53;76.67;100808.94;5550020;32;34471;-60
2023/01/26 15:58:35;;;;;;;23.35;15.50;;;;;;;5.76;88.25;100810.72;5549830;32;34326;-59
2023/01/26 16:01:37;;;;;;;22.95;15.48;;;;;;;5.89;80.58;100810.44;5549752;32;33725;-60
2023/01/26 16:04:40;;;;;;;24.50;14.87;;;;;;;5.72;75.19;100812.22;5549026;32;33644;-60
2023/01/26 16:07:43;;;;;;;19.45;13.55;;;;;;;5.90;71.85;100819.22;5549464;32;33794;-60
2023/01/26 16:10:46;;;;;;;21.33;13.48;;;;;;;5.67;90.05;100811.34;5549280;32;33701;-59
2023/01/26 16:13:48;;;;;;;21.27;14.43;;;;;;;5.95;79.82;100816.66;5549976;32;34476;-60
2023/01/26 16:17:16;;;;;;;19.92;13.48;;;;;;;5.58;71.22;100816.22;5549722;32;34086;-59
2023/01/26 16:20:18;;;;;;;21.83;12.80;;;;;;;5.79;73.08;100807.56;5561494;32;33630;-60
2023/01/26 16:23:26;;;;;;;22.62;12.45;;;;;;;5.79;77.77;100812.09;5568786;32;34406;-60
2023/01/26 16:26:29;;;;;;;17.90;11.70;;;;;;;5.68;63.20;100804.97;5569130;32;33509;-59
2023/01/26 16:29:32;;;;;;;17.52;11.50;;;;;;;5.78;65.26;100808.62;5568467;32;34323;-60
2023/01/26 16:32:34;;;;;;;18.98;12.70;;;;;;;5.77;77.24;100809.66;5569255;32;33680;-60
2023/01/26 16:35:37;;;;;;;16.90;11.12;;;;;;;5.98;64.01;100812.72;5569045;32;33731;-60
2023/01/26 16:38:40;;;;;;;17.60;11.50;;;;;;;5.96;58.04;100815.66;5562034;32;34323;-60
2023/01/26 16:41:43;;;;;;;18.50;10.77;;;;;;;5.75;60.83;100813.59;5549388;32;34399;-59
2023/01/26 16:44:45;;;;;;;19.75;11.90;;;;;;;5.52;61.34;100815.28;5549389;32;34371;-60
2023/01/26 16:47:50;;;;;;;16.23;11.45;;;;;;;5.45;59.14;100803.19;5555776;32;33706;-59
2023/01/26 16:50:53;;;;;;;17.27;11.88;;;;;;;5.29;59.29;100802.87;5558524;32;34475;-60
2023/01/26 16:53:55;;;;;;;18.80;11.32;;;;;;;5.38;61.40;100798.81;5551750;32;33593;-60
